Etusivu
METAR-TAF:

METAR-TAF

Lentoasemat :

Dothan, Alabama, Yhdysvallat

Leveyspiiri: 31-19-17N, Pituuspiiri: 085-26-59W, korkeus merenpinnasta: 122 m

Tämänhetkinen sää

Tämä raportti tehtiin 41 minuuttia sitten, kello 05.53 UTC
Tuuli 5 kn luoteesta
Lämpötila 20°C
Kosteus 68%
Ilmanpaine 1014 hPa
Näkyvyys: 16.1 km
Hajanaisia pilviä 11000 ft:n korkeudessa

METAR: KDHN 050553Z AUTO 31005KT 10SM SCT110 20/14 A2995 RMK AO2 SLP137 T02000139 10250 20200 58007

Aika: 01:34 (06:34 UTC)

Sääennuste

Tämä raportti tehtiin 1 tunti ja 11 minuuttia sitten, kello 05.23 UTC
Ennuste voimassa 05. päivästä klo 06 UTC - 06. päivään klo 06 UTC
Tuuli 5 kn pohjoisesta
Näkyvyys: 10 km
Hajonneita pilviä 5000 ft:n korkeudessa

TAF: KDHN 050523Z 0506/0606 35005KT P6SM BKN050

Säähavainnot ja -ennusteet yli 4000 lentoasemalta (METAR- ja TAF-raportit).

Käytössä olevat sääasemat on merkitty karttaan keltaisilla ja punaisilla pisteillä.

Aseta hiiri pisteen päälle nähdäksesi sääaseman nimen.

Klikkaa sitten nähdäksesi säähavainnot ja -ennusteet.

Kartan vaihtaminen: klikkaa mustalla rastilla varustettuja vihreitä pisteitä, niin voit zoomata sisään; viivalla varustettua vihreää pistettä, niin voit zoomata ulos tai vihreitä nuolia, niin pääset viereisille kartoille.


METAR-TAF: